Time;durP1;ratioP1;P1;durP2;ratioP2;P2;SDS_P1;SDS_P2;PMS_P1;PMS_P2;Temp;Humidity;BMP_temperature;BMP_pressure;BME280_temperature;BME280_humidity;BME280_pressure;Samples;Min_cycle;Max_cycle;Signal;HPM_P1;HPM_P2
2023/06/16 00:01:23;;;;;;;15.60;13.90;;;;;;;17.15;100.00;96357.41;4944874;28;20027;-87
2023/06/16 00:03:49;;;;;;;18.33;13.25;;;;;;;17.15;100.00;96357.41;4942559;29;20029;-89
2023/06/16 00:06:16;;;;;;;12.48;10.88;;;;;;;17.23;100.00;96348.66;4945261;29;20452;-89
2023/06/16 00:08:44;;;;;;;12.30;10.85;;;;;;;17.27;100.00;96353.34;4975983;28;20023;-90
2023/06/16 00:11:14;;;;;;;13.13;11.00;;;;;;;17.29;100.00;96363.66;4960626;28;20039;-91
2023/06/16 00:13:40;;;;;;;13.65;12.15;;;;;;;17.25;100.00;96351.91;4975764;28;20051;-90
2023/06/16 00:16:06;;;;;;;18.73;12.60;;;;;;;17.23;100.00;96349.47;4924408;29;20037;-89
2023/06/16 00:18:32;;;;;;;12.02;10.75;;;;;;;17.21;100.00;96351.44;4944705;29;20050;-89
2023/06/16 00:21:01;;;;;;;21.65;17.58;;;;;;;17.08;100.00;96347.81;4944511;28;20409;-88
2023/06/16 00:23:26;;;;;;;13.43;12.23;;;;;;;17.26;100.00;96359.59;4961602;28;20050;-91
2023/06/16 00:25:52;;;;;;;13.95;12.60;;;;;;;17.27;100.00;96355.97;4928607;29;20575;-90
2023/06/16 00:28:18;;;;;;;16.48;12.60;;;;;;;17.27;100.00;96355.19;4945776;28;20027;-89
2023/06/16 00:30:43;;;;;;;13.63;12.52;;;;;;;17.34;100.00;96354.28;4943348;29;20103;-89
2023/06/16 00:33:10;;;;;;;15.98;13.63;;;;;;;17.42;100.00;96368.31;4944206;29;20086;-88
2023/06/16 00:35:35;;;;;;;26.52;20.67;;;;;;;17.31;100.00;96365.13;4944645;28;20560;-89
2023/06/16 00:38:01;;;;;;;19.17;15.13;;;;;;;17.39;100.00;96372.91;4927337;29;20038;-91
2023/06/16 00:40:26;;;;;;;17.05;14.63;;;;;;;17.40;100.00;96366.66;4977386;28;20035;-90
2023/06/16 00:42:53;;;;;;;15.88;14.18;;;;;;;17.37;100.00;96367.03;4927358;29;20426;-89
2023/06/16 00:45:19;;;;;;;17.67;15.90;;;;;;;17.44;100.00;96369.75;4944289;29;20042;-89
2023/06/16 00:47:44;;;;;;;17.85;15.90;;;;;;;17.43;100.00;96367.31;4926884;29;20035;-89
2023/06/16 00:50:11;;;;;;;21.55;17.02;;;;;;;17.45;100.00;96373.19;4944251;28;20508;-89
2023/06/16 00:52:38;;;;;;;18.88;16.48;;;;;;;17.48;100.00;96381.50;4960211;28;20031;-90
2023/06/16 00:55:08;;;;;;;20.05;17.52;;;;;;;17.44;100.00;96366.31;4961253;28;20038;-89
2023/06/16 00:57:33;;;;;;;16.25;14.55;;;;;;;17.46;100.00;96365.16;4930401;29;20035;-90
2023/06/16 00:59:59;;;;;;;17.60;15.90;;;;;;;17.43;100.00;96367.31;4944115;29;20130;-90
2023/06/16 01:02:26;;;;;;;18.05;15.82;;;;;;;17.48;100.00;96371.03;4945219;29;20041;-90
2023/06/16 01:04:52;;;;;;;19.83;16.05;;;;;;;17.45;100.00;96366.16;4943786;29;20035;-90
2023/06/16 01:07:42;;;;;;;16.77;15.00;;;;;;;17.47;100.00;96377.25;4945327;28;20501;-91
2023/06/16 01:10:16;;;;;;;15.07;13.50;;;;;;;17.51;100.00;96377.72;4960621;28;20150;-89
2023/06/16 01:13:03;;;;;;;14.93;13.52;;;;;;;17.47;100.00;96377.25;4928117;29;20107;-91
2023/06/16 01:15:30;;;;;;;14.57;13.05;;;;;;;17.55;100.00;96384.22;4928370;29;20505;-91
2023/06/16 01:18:00;;;;;;;18.13;14.70;;;;;;;17.54;100.00;96377.34;4959124;28;20024;-89
2023/06/16 01:20:48;;;;;;;15.15;13.70;;;;;;;17.52;100.00;96374.09;4944356;28;20116;-90
2023/06/16 01:23:40;;;;;;;17.40;14.85;;;;;;;17.41;100.00;96367.47;4924751;29;20199;-90
2023/06/16 01:26:07;;;;;;;14.48;12.95;;;;;;;17.44;100.00;96367.13;4938673;29;20089;-90
2023/06/16 01:28:34;;;;;;;14.40;12.93;;;;;;;17.48;100.00;96360.53;4944767;29;20027;-90
2023/06/16 01:31:00;;;;;;;15.60;12.70;;;;;;;17.51;100.00;96367.22;4927002;29;20123;-89
2023/06/16 01:33:27;;;;;;;17.02;14.00;;;;;;;17.50;100.00;96368.25;4928604;29;20039;-89
2023/06/16 01:35:53;;;;;;;14.60;13.27;;;;;;;17.50;100.00;96363.78;4943005;29;20114;-89
2023/06/16 01:38:20;;;;;;;16.52;14.80;;;;;;;17.50;100.00;96355.16;4974950;28;20059;-88
2023/06/16 01:40:47;;;;;;;19.63;17.27;;;;;;;17.40;100.00;96356.19;4943448;29;20037;-88
2023/06/16 01:43:13;;;;;;;19.10;16.17;;;;;;;17.27;100.00;96344.72;4941722;28;20023;-88
2023/06/16 01:45:39;;;;;;;21.85;15.90;;;;;;;17.28;100.00;96348.94;4943668;28;20482;-90
2023/06/16 01:48:05;;;;;;;20.70;15.98;;;;;;;17.37;100.00;96358.34;4943162;29;20904;-90
2023/06/16 01:50:31;;;;;;;19.38;16.83;;;;;;;17.37;100.00;96351.31;4944977;29;20163;-90
2023/06/16 01:52:56;;;;;;;19.65;16.63;;;;;;;17.43;100.00;96357.66;4975845;28;20031;-90
2023/06/16 01:55:22;;;;;;;22.65;16.23;;;;;;;17.43;100.00;96354.22;4944603;28;20452;-91
2023/06/16 01:57:47;;;;;;;16.65;15.00;;;;;;;17.40;100.00;96348.31;4925670;29;20145;-91
2023/06/16 02:00:17;;;;;;;22.45;17.15;;;;;;;17.45;100.00;96352.22;4928303;29;20038;-90
2023/06/16 02:02:47;;;;;;;18.58;16.67;;;;;;;17.46;100.00;96354.69;4929446;29;20041;-91
2023/06/16 02:05:15;;;;;;;19.48;16.98;;;;;;;17.38;100.00;96347.69;4924775;29;20051;-91
2023/06/16 02:07:42;;;;;;;20.08;18.05;;;;;;;17.41;100.00;96346.53;4945173;29;20037;-90
2023/06/16 02:10:08;;;;;;;19.95;18.02;;;;;;;17.42;100.00;96344.72;4975558;28;20501;-91
2023/06/16 02:12:34;;;;;;;22.23;19.08;;;;;;;17.46;100.00;96343.38;4944441;29;20510;-90
2023/06/16 02:15:00;;;;;;;18.38;16.58;;;;;;;17.52;100.00;96345.28;4945138;28;20051;-90
2023/06/16 02:17:26;;;;;;;20.60;18.40;;;;;;;17.50;100.00;96344.66;4943855;29;20530;-90
2023/06/16 02:19:54;;;;;;;22.90;17.95;;;;;;;17.47;100.00;96345.81;4945969;28;20049;-89
2023/06/16 02:22:19;;;;;;;19.10;16.63;;;;;;;17.45;100.00;96347.81;4942969;28;20467;-90
2023/06/16 02:24:46;;;;;;;18.48;16.60;;;;;;;17.45;100.00;96349.59;4928381;28;20028;-90
2023/06/16 02:27:13;;;;;;;20.38;18.38;;;;;;;17.50;100.00;96355.94;4978486;28;20050;-90
2023/06/16 02:29:39;;;;;;;18.55;16.80;;;;;;;17.45;100.00;96350.44;4947893;29;20544;-88
2023/06/16 02:32:05;;;;;;;20.30;18.17;;;;;;;17.44;100.00;96351.41;4945510;29;20027;-86
2023/06/16 02:34:31;;;;;;;22.13;18.50;;;;;;;17.46;100.00;96357.31;4961176;28;20097;-87
2023/06/16 02:36:56;;;;;;;22.35;20.02;;;;;;;17.36;100.00;96333.97;4961501;28;20506;-88
2023/06/16 02:39:22;;;;;;;27.42;21.90;;;;;;;17.31;100.00;96341.53;4928504;29;20024;-89
2023/06/16 02:41:48;;;;;;;27.23;22.08;;;;;;;17.22;100.00;96340.00;4946023;29;20622;-88
2023/06/16 02:44:13;;;;;;;22.80;20.08;;;;;;;17.23;100.00;96346.06;4928333;29;20050;-88
2023/06/16 02:46:39;;;;;;;18.95;17.17;;;;;;;17.17;100.00;96333.66;4929821;29;20050;-89
2023/06/16 02:49:04;;;;;;;20.48;18.25;;;;;;;17.06;100.00;96337.50;4943934;28;20027;-89
2023/06/16 02:51:30;;;;;;;17.63;16.17;;;;;;;17.16;100.00;96335.47;4926399;29;20031;-88
2023/06/16 02:53:55;;;;;;;19.23;16.88;;;;;;;17.12;100.00;96330.75;4945795;28;20097;-88
2023/06/16 02:56:23;;;;;;;15.48;13.95;;;;;;;17.17;100.00;96338.91;4945435;28;20043;-89
2023/06/16 02:58:50;;;;;;;17.95;16.35;;;;;;;17.21;100.00;96333.13;4946229;29;20035;-88
2023/06/16 03:01:15;;;;;;;17.58;15.95;;;;;;;17.21;100.00;96330.50;4927980;29;20038;-88
2023/06/16 03:03:42;;;;;;;16.60;14.93;;;;;;;17.25;100.00;96337.03;4945388;29;20536;-88
2023/06/16 03:06:08;;;;;;;17.15;15.35;;;;;;;17.19;100.00;96321.19;4944095;28;20549;-89
2023/06/16 03:08:34;;;;;;;19.85;15.32;;;;;;;17.25;100.00;96336.19;4929476;29;20089;-89
2023/06/16 03:11:00;;;;;;;16.10;14.80;;;;;;;17.23;100.00;96323.28;4928792;29;20028;-89
2023/06/16 03:13:25;;;;;;;16.85;15.35;;;;;;;17.22;100.00;96326.91;4946174;28;20575;-89
2023/06/16 03:15:52;;;;;;;15.15;13.80;;;;;;;17.25;100.00;96320.47;4945543;28;20027;-90
2023/06/16 03:18:18;;;;;;;14.30;12.80;;;;;;;17.29;100.00;96325.19;4946011;29;20870;-90
2023/06/16 03:20:45;;;;;;;12.15;11.02;;;;;;;17.26;100.00;96322.13;4931040;29;20038;-91
2023/06/16 03:23:11;;;;;;;15.77;13.27;;;;;;;17.23;100.00;96317.25;4928804;29;20027;-89
2023/06/16 03:25:38;;;;;;;13.55;12.23;;;;;;;17.21;100.00;96312.16;4945417;29;20038;-89
2023/06/16 03:28:06;;;;;;;14.23;12.77;;;;;;;17.23;100.00;96318.06;4945009;29;20019;-88
2023/06/16 03:30:32;;;;;;;15.32;13.95;;;;;;;17.08;100.00;96308.56;4961664;28;20038;-91
2023/06/16 03:32:58;;;;;;;14.48;13.20;;;;;;;17.10;100.00;96303.94;4945176;29;20039;-90
2023/06/16 03:35:23;;;;;;;18.83;16.85;;;;;;;17.10;100.00;96314.41;4945068;29;20482;-90
2023/06/16 03:37:49;;;;;;;20.63;15.93;;;;;;;17.08;100.00;96313.78;4947811;28;20042;-89
2023/06/16 03:40:14;;;;;;;18.23;15.93;;;;;;;17.04;100.00;96308.09;4944634;29;20422;-88
2023/06/16 03:42:40;;;;;;;18.83;17.05;;;;;;;16.99;100.00;96297.31;4927148;29;20110;-91
2023/06/16 03:45:06;;;;;;;16.08;14.77;;;;;;;17.08;100.00;96298.88;4929293;29;20094;-89
2023/06/16 03:47:32;;;;;;;16.65;15.35;;;;;;;17.04;100.00;96273.22;4930148;29;20404;-89
2023/06/16 03:49:58;;;;;;;19.13;17.42;;;;;;;17.03;100.00;96255.88;4924832;29;20049;-90
2023/06/16 03:52:24;;;;;;;18.42;16.70;;;;;;;16.93;100.00;96237.81;4928565;29;20039;-89
2023/06/16 03:54:50;;;;;;;19.60;17.90;;;;;;;17.06;100.00;96240.66;4945169;29;20516;-90
2023/06/16 03:57:16;;;;;;;18.10;16.65;;;;;;;17.02;100.00;96226.28;4944852;28;20038;-87
2023/06/16 03:59:42;;;;;;;18.92;17.13;;;;;;;17.01;100.00;96214.19;4945645;29;20019;-93
2023/06/16 04:02:07;;;;;;;18.45;16.85;;;;;;;17.07;100.00;96207.44;4944362;29;20031;-90
2023/06/16 04:04:36;;;;;;;18.60;16.85;;;;;;;17.06;100.00;96190.91;4945365;29;20023;-89
2023/06/16 04:07:03;;;;;;;16.85;15.20;;;;;;;17.24;100.00;96193.97;4943913;29;20440;-88
2023/06/16 04:09:30;;;;;;;17.02;15.73;;;;;;;17.18;100.00;96178.16;4946552;28;20057;-90
2023/06/16 04:11:55;;;;;;;15.75;14.60;;;;;;;17.17;100.00;96147.75;4945441;29;20042;-90
2023/06/16 04:14:20;;;;;;;18.30;16.65;;;;;;;17.25;100.00;96116.22;4926070;29;20055;-91
2023/06/16 04:16:46;;;;;;;15.18;13.75;;;;;;;17.46;100.00;96113.66;4947164;28;20035;-92
2023/06/16 04:19:11;;;;;;;15.95;14.55;;;;;;;17.44;100.00;96054.56;4929189;29;20117;-93
2023/06/16 04:21:37;;;;;;;13.85;12.85;;;;;;;17.55;100.00;96038.38;4931000;29;20015;-93
2023/06/16 04:24:07;;;;;;;15.07;12.55;;;;;;;17.91;100.00;95986.72;4927493;29;20039;-89
2023/06/16 04:26:32;;;;;;;11.07;10.25;;;;;;;18.19;100.00;95882.63;4939731;29;20571;-89
2023/06/16 04:29:03;;;;;;;14.00;12.73;;;;;;;18.03;100.00;95795.63;4944406;29;20035;-92
2023/06/16 04:31:30;;;;;;;15.13;13.68;;;;;;;18.04;100.00;95813.78;4928625;29;20866;-86
2023/06/16 04:33:59;;;;;;;12.68;11.73;;;;;;;18.17;100.00;95829.53;4944782;29;20094;-87
2023/06/16 04:36:25;;;;;;;13.98;12.82;;;;;;;18.32;100.00;95763.84;4942303;29;20500;-87
2023/06/16 04:38:52;;;;;;;13.38;11.15;;;;;;;18.83;100.00;95590.88;4944707;28;20032;-87
2023/06/16 04:41:17;;;;;;;13.77;12.35;;;;;;;18.83;100.00;95525.25;4942637;28;20477;-87
2023/06/16 04:43:43;;;;;;;10.05;9.35;;;;;;;18.46;100.00;95463.78;4943816;28;20166;-88
2023/06/16 04:46:08;;;;;;;10.35;9.57;;;;;;;18.41;100.00;95482.75;4941469;29;20500;-84
2023/06/16 04:48:34;;;;;;;12.02;11.13;;;;;;;18.44;100.00;95574.16;4941916;28;20049;-86
2023/06/16 04:50:59;;;;;;;10.93;10.13;;;;;;;18.33;100.00;95532.78;4942699;29;20439;-85
2023/06/16 04:53:26;;;;;;;13.45;12.45;;;;;;;18.30;100.00;95569.94;4942743;28;20398;-81
2023/06/16 04:55:51;;;;;;;14.32;10.45;;;;;;;18.18;100.00;95587.28;4944326;28;20050;-83
2023/06/16 04:58:16;;;;;;;11.40;10.45;;;;;;;18.14;100.00;95593.16;4940474;28;20023;-87
2023/06/16 05:00:43;;;;;;;12.18;10.98;;;;;;;18.03;100.00;95602.41;4958819;28;20023;-86
2023/06/16 05:03:08;;;;;;;12.10;11.07;;;;;;;18.10;100.00;95586.69;4940810;29;20126;-84
2023/06/16 05:05:33;;;;;;;14.48;13.38;;;;;;;17.92;100.00;95609.03;4944165;28;20024;-79
2023/06/16 05:07:59;;;;;;;16.15;14.95;;;;;;;17.78;100.00;95632.81;4943153;28;20034;-87
2023/06/16 05:10:24;;;;;;;17.15;15.55;;;;;;;17.77;100.00;95691.47;4943209;28;20217;-88
2023/06/16 05:12:50;;;;;;;16.85;15.43;;;;;;;17.95;100.00;95722.41;4944007;28;20023;-79
2023/06/16 05:15:15;;;;;;;15.85;14.68;;;;;;;17.84;100.00;95687.06;4942317;28;20099;-92
2023/06/16 05:17:40;;;;;;;18.40;16.90;;;;;;;17.93;100.00;95691.13;4926776;29;20575;-86
2023/06/16 05:20:06;;;;;;;15.60;14.40;;;;;;;18.10;100.00;95676.66;4940566;28;20493;-87
2023/06/16 05:22:32;;;;;;;17.25;15.85;;;;;;;18.09;100.00;95658.47;4944458;28;21030;-89
2023/06/16 05:24:58;;;;;;;18.17;16.70;;;;;;;18.02;100.00;95647.97;4906449;29;20032;-83
2023/06/16 05:27:24;;;;;;;19.10;17.33;;;;;;;17.97;100.00;95654.84;4936800;29;20114;-88
2023/06/16 05:29:54;;;;;;;17.08;15.60;;;;;;;18.00;100.00;95643.94;4975872;28;20469;-89
2023/06/16 05:32:21;;;;;;;18.83;16.98;;;;;;;18.00;100.00;95628.22;4942960;29;20042;-90
2023/06/16 05:34:47;;;;;;;14.55;13.45;;;;;;;18.09;100.00;95613.91;4927772;29;20031;-91
2023/06/16 05:37:17;;;;;;;15.30;14.00;;;;;;;18.18;100.00;95558.44;4958646;28;20039;-91
2023/06/16 05:39:46;;;;;;;15.07;13.98;;;;;;;18.30;100.00;95504.34;4946013;28;20544;-93
2023/06/16 05:42:13;;;;;;;;;;;;;;;18.53;100.00;95471.63;4944177;29;20035;-88
2023/06/16 05:44:42;;;;;;;15.60;14.40;;;;;;;18.20;100.00;95471.72;4941536;28;19941;-89
2023/06/16 05:47:08;;;;;;;15.73;14.50;;;;;;;18.41;100.00;95539.66;4927463;29;20139;-87
2023/06/16 05:49:34;;;;;;;15.00;13.55;;;;;;;18.33;100.00;95454.09;4935995;28;20027;-84
2023/06/16 05:52:02;;;;;;;14.15;13.07;;;;;;;18.52;100.00;95475.28;4941884;29;20038;-87
2023/06/16 05:54:28;;;;;;;13.82;12.90;;;;;;;18.73;100.00;95461.88;4940682;28;20031;-86
2023/06/16 05:56:53;;;;;;;14.88;13.68;;;;;;;18.89;100.00;95433.34;4974514;28;20580;-86
2023/06/16 05:59:19;;;;;;;13.82;12.75;;;;;;;19.01;100.00;95441.34;4940233;28;20106;-83
2023/06/16 06:01:44;;;;;;;14.10;13.10;;;;;;;19.03;100.00;95502.34;4946911;28;20031;-83
2023/06/16 06:04:11;;;;;;;12.82;11.82;;;;;;;18.90;100.00;95403.47;4945672;28;20034;-83
2023/06/16 06:06:38;;;;;;;13.30;12.18;;;;;;;19.02;100.00;95372.06;4939707;28;20070;-81
2023/06/16 06:09:04;;;;;;;14.68;13.57;;;;;;;18.93;100.00;95368.09;4936396;28;20031;-83
2023/06/16 06:11:30;;;;;;;14.82;13.73;;;;;;;19.09;100.00;95335.25;4927842;28;20516;-79
2023/06/16 06:13:55;;;;;;;14.95;13.73;;;;;;;19.25;100.00;95356.56;4932333;28;20055;-77
2023/06/16 06:16:22;;;;;;;16.83;15.43;;;;;;;19.36;100.00;95379.50;4944367;28;20027;-82
2023/06/16 06:18:48;;;;;;;15.18;13.98;;;;;;;19.42;100.00;95378.66;4946995;28;20110;-78
2023/06/16 06:21:13;;;;;;;15.73;14.55;;;;;;;19.59;100.00;95383.38;4943923;28;20041;-80
2023/06/16 06:23:39;;;;;;;13.65;12.55;;;;;;;19.57;100.00;95353.88;4946553;28;20015;-80
2023/06/16 06:26:05;;;;;;;13.13;12.23;;;;;;;19.49;100.00;95315.53;4946170;28;20059;-79
2023/06/16 06:28:30;;;;;;;15.15;13.82;;;;;;;19.34;100.00;95283.53;4944185;28;20039;-82
2023/06/16 06:30:56;;;;;;;13.60;12.70;;;;;;;19.52;100.00;95311.69;4944150;29;20424;-78
2023/06/16 06:33:21;;;;;;;13.93;12.82;;;;;;;19.66;100.00;95331.56;4942866;28;20035;-79
2023/06/16 06:35:47;;;;;;;14.35;13.25;;;;;;;19.39;100.00;95255.56;4944928;28;20055;-79
2023/06/16 06:38:12;;;;;;;13.73;12.55;;;;;;;19.18;100.00;95187.72;4929354;28;20038;-80
2023/06/16 06:40:38;;;;;;;14.23;12.95;;;;;;;19.56;100.00;95205.09;4971389;28;20058;-78
2023/06/16 06:43:03;;;;;;;14.82;13.55;;;;;;;19.63;100.00;95098.88;4945341;28;20027;-77
2023/06/16 06:45:29;;;;;;;14.02;13.00;;;;;;;19.58;100.00;95033.06;4945287;28;20027;-80
2023/06/16 06:47:54;;;;;;;15.95;14.60;;;;;;;19.65;100.00;95048.75;4946201;28;20039;-81
2023/06/16 06:50:20;;;;;;;15.38;13.98;;;;;;;19.78;100.00;95119.50;4944944;28;20118;-79
2023/06/16 06:52:45;;;;;;;16.45;14.15;;;;;;;20.41;100.00;95023.25;4946106;28;20031;-84
2023/06/16 06:55:11;;;;;;;16.63;15.43;;;;;;;20.20;100.00;94823.84;4944049;28;20038;-87
2023/06/16 06:57:36;;;;;;;17.75;16.30;;;;;;;21.39;100.00;94616.50;4926939;29;20901;-83
2023/06/16 07:00:02;;;;;;;15.13;14.13;;;;;;;20.88;100.00;94628.97;4943318;29;20455;-81
2023/06/16 07:02:27;;;;;;;16.13;15.02;;;;;;;21.03;100.00;94665.25;4944383;28;20484;-89
2023/06/16 07:04:52;;;;;;;15.98;14.77;;;;;;;20.24;100.00;94684.78;4943769;28;20512;-79
2023/06/16 07:07:18;;;;;;;16.05;14.55;;;;;;;20.25;100.00;94754.78;4943249;29;20058;-81
2023/06/16 07:09:43;;;;;;;16.90;15.27;;;;;;;20.59;100.00;94821.47;4944375;28;20082;-80
2023/06/16 07:12:09;;;;;;;16.80;15.40;;;;;;;20.48;100.00;94817.88;4942006;28;20027;-80
2023/06/16 07:14:35;;;;;;;16.50;15.27;;;;;;;20.19;100.00;94856.47;4942534;29;20135;-79
2023/06/16 07:17:02;;;;;;;17.55;16.20;;;;;;;20.14;100.00;94887.13;4941633;29;20027;-80
2023/06/16 07:19:28;;;;;;;18.95;17.55;;;;;;;20.76;100.00;94790.72;4944255;28;20028;-78
2023/06/16 07:21:54;;;;;;;18.10;16.80;;;;;;;21.07;100.00;94653.19;4941822;29;20056;-78
2023/06/16 07:24:21;;;;;;;18.98;16.98;;;;;;;21.29;100.00;94632.19;4943506;28;20038;-79
2023/06/16 07:26:46;;;;;;;19.58;17.80;;;;;;;20.83;100.00;94565.72;4944096;28;20043;-84
2023/06/16 07:29:12;;;;;;;18.25;16.42;;;;;;;21.77;100.00;94561.00;4941469;29;20512;-78
2023/06/16 07:31:37;;;;;;;18.10;16.60;;;;;;;22.08;100.00;94467.16;4943497;28;20097;-80
2023/06/16 07:34:03;;;;;;;17.98;16.52;;;;;;;21.72;100.00;94520.63;4940848;29;20042;-81
2023/06/16 07:36:30;;;;;;;24.17;18.02;;;;;;;21.11;100.00;94562.16;4943456;28;20155;-83
2023/06/16 07:38:55;;;;;;;19.30;17.85;;;;;;;20.62;100.00;94624.38;4942160;28;20035;-83
2023/06/16 07:41:21;;;;;;;22.65;20.90;;;;;;;20.03;100.00;94680.19;4942710;29;20082;-84
2023/06/16 07:43:48;;;;;;;22.70;20.70;;;;;;;20.44;100.00;94698.31;4943432;28;20019;-80
2023/06/16 07:46:13;;;;;;;21.92;19.98;;;;;;;20.52;100.00;94752.41;4942995;28;20034;-85
2023/06/16 07:48:39;;;;;;;23.75;21.65;;;;;;;20.78;100.00;94731.50;4943498;28;20023;-87
2023/06/16 07:51:04;;;;;;;20.60;19.00;;;;;;;20.31;100.00;94694.16;4921626;29;20043;-87
2023/06/16 07:53:31;;;;;;;20.95;19.35;;;;;;;20.33;100.00;94722.84;4939936;29;20077;-79
2023/06/16 07:55:56;;;;;;;22.58;20.67;;;;;;;20.14;100.00;94763.50;4942182;28;20110;-83
2023/06/16 07:58:22;;;;;;;22.83;20.48;;;;;;;20.43;100.00;94721.19;4943584;28;20408;-90
2023/06/16 08:00:51;;;;;;;22.23;20.30;;;;;;;20.55;100.00;94701.94;4940831;29;20031;-81
2023/06/16 08:03:17;;;;;;;;;;;;;;;20.25;100.00;94710.84;4942490;29;20035;-84
2023/06/16 08:05:42;;;;;;;21.20;19.35;;;;;;;20.36;100.00;94761.84;4942936;28;19925;-88
2023/06/16 08:08:08;;;;;;;20.15;18.33;;;;;;;20.53;100.00;94673.19;4942100;28;20039;-82
2023/06/16 08:10:33;;;;;;;20.50;18.73;;;;;;;20.26;100.00;94691.41;4943753;28;20023;-84
2023/06/16 08:12:58;;;;;;;17.48;16.15;;;;;;;20.31;100.00;94652.06;4941827;28;20895;-87
2023/06/16 08:15:24;;;;;;;18.27;16.75;;;;;;;20.68;100.00;94612.13;4943097;28;20527;-82
2023/06/16 08:17:50;;;;;;;16.95;15.55;;;;;;;20.81;100.00;94562.53;4941186;28;20410;-90
2023/06/16 08:20:16;;;;;;;15.75;14.60;;;;;;;20.93;100.00;94536.09;4943474;28;20027;-88
2023/06/16 08:22:41;;;;;;;14.98;13.80;;;;;;;21.14;100.00;94503.72;4941241;28;20307;-83
2023/06/16 08:25:07;;;;;;;14.98;13.77;;;;;;;21.84;100.00;94476.41;4958764;28;20031;-83
2023/06/16 08:27:33;;;;;;;14.80;13.75;;;;;;;21.85;100.00;94467.47;4944665;28;20063;-80
2023/06/16 08:29:58;;;;;;;13.95;12.93;;;;;;;21.76;100.00;94490.09;4943062;28;20035;-79
2023/06/16 08:32:23;;;;;;;14.20;13.00;;;;;;;21.01;100.00;94461.91;4943004;29;20069;-82
2023/06/16 08:34:49;;;;;;;12.10;11.07;;;;;;;21.19;100.00;94479.28;4940220;29;20618;-81
2023/06/16 08:37:15;;;;;;;12.88;11.80;;;;;;;21.62;100.00;94471.25;4959077;28;20077;-82
2023/06/16 08:39:44;;;;;;;12.15;11.13;;;;;;;21.95;100.00;94478.13;4941434;29;20034;-83
2023/06/16 08:42:13;;;;;;;9.82;9.15;;;;;;;21.15;100.00;94436.00;4944476;28;20083;-91
2023/06/16 08:44:38;;;;;;;;;;;;;;;21.66;100.00;94418.81;4959709;28;20090;-87
2023/06/16 08:47:05;;;;;;;8.93;8.20;;;;;;;21.55;100.00;94428.47;4943776;28;20634;-81
2023/06/16 08:49:31;;;;;;;8.60;7.80;;;;;;;21.60;100.00;94391.63;4944850;28;20094;-83
2023/06/16 08:51:57;;;;;;;7.70;7.00;;;;;;;21.71;100.00;94393.25;4974511;28;20038;-86
2023/06/16 08:54:25;;;;;;;8.38;7.72;;;;;;;21.40;100.00;94399.34;4928425;29;20077;-93
2023/06/16 08:56:51;;;;;;;7.55;6.95;;;;;;;22.25;100.00;94372.78;4941022;29;20031;-89
2023/06/16 08:59:18;;;;;;;8.00;7.50;;;;;;;22.35;100.00;94359.63;4941399;29;20035;-88
2023/06/16 09:01:46;;;;;;;7.63;6.90;;;;;;;23.34;100.00;94348.75;4941180;29;20051;-90
2023/06/16 09:04:13;;;;;;;8.02;7.50;;;;;;;22.61;100.00;94315.63;4926709;29;20066;-84
2023/06/16 09:06:48;;;;;;;7.55;6.97;;;;;;;23.11;100.00;94346.66;4926784;29;20066;-86
2023/06/16 09:09:16;;;;;;;7.57;7.07;;;;;;;22.11;100.00;94323.38;4939280;29;20069;-81
2023/06/16 09:11:41;;;;;;;7.47;6.95;;;;;;;22.92;100.00;94324.44;4977632;28;20118;-88
2023/06/16 09:14:14;;;;;;;7.10;6.47;;;;;;;22.83;100.00;94295.09;4974635;28;20802;-83
2023/06/16 09:16:40;;;;;;;7.32;6.82;;;;;;;22.92;100.00;94293.53;4942534;28;20348;-91
2023/06/16 09:19:07;;;;;;;8.07;6.15;;;;;;;23.72;100.00;94289.28;4938688;28;20579;-85
2023/06/16 09:21:33;;;;;;;6.40;5.72;;;;;;;24.88;100.00;94293.31;4930549;28;20045;-90
2023/06/16 09:24:00;;;;;;;6.97;5.60;;;;;;;24.20;100.00;94287.81;4931068;28;20028;-88
2023/06/16 09:26:30;;;;;;;7.35;6.68;;;;;;;23.36;100.00;94291.16;4933283;29;20696;-93
2023/06/16 09:28:56;;;;;;;8.23;7.38;;;;;;;23.69;100.00;94304.88;4973339;28;20094;-80
2023/06/16 09:31:23;;;;;;;6.25;5.60;;;;;;;23.65;100.00;94277.38;4942882;28;20034;-90
2023/06/16 09:33:48;;;;;;;6.07;5.68;;;;;;;23.65;100.00;94258.84;4944204;28;20122;-84
2023/06/16 09:36:25;;;;;;;6.13;5.55;;;;;;;23.49;100.00;94258.91;4943854;28;20042;-84
2023/06/16 09:38:50;;;;;;;6.32;5.72;;;;;;;23.20;100.00;94238.56;4944228;28;20036;-80
2023/06/16 09:41:16;;;;;;;5.88;5.35;;;;;;;23.78;100.00;94248.50;4945643;28;20059;-88
2023/06/16 09:43:42;;;;;;;5.35;4.38;;;;;;;23.76;100.00;94252.50;4943406;28;20037;-87
2023/06/16 09:46:09;;;;;;;6.25;3.97;;;;;;;23.95;100.00;94240.25;4944706;28;20031;-85
2023/06/16 09:48:50;;;;;;;4.13;3.83;;;;;;;24.03;100.00;94237.03;4941439;29;20094;-87
2023/06/16 09:51:23;;;;;;;4.90;4.50;;;;;;;24.16;100.00;94233.03;4942608;29;20048;-88
2023/06/16 09:53:49;;;;;;;4.80;4.13;;;;;;;24.30;100.00;94250.72;4944898;28;20130;-88
2023/06/16 09:56:15;;;;;;;5.22;4.50;;;;;;;24.58;100.00;94230.66;4974703;28;20027;-80
2023/06/16 09:58:46;;;;;;;4.60;3.67;;;;;;;24.44;100.00;94229.69;4944753;28;20098;-87
2023/06/16 10:01:14;;;;;;;6.03;4.13;;;;;;;24.64;99.89;94214.47;4941422;29;20082;-87
2023/06/16 10:03:41;;;;;;;5.97;3.58;;;;;;;24.19;100.00;94212.09;4944509;28;20035;-87
2023/06/16 10:06:20;;;;;;;3.47;2.72;;;;;;;24.86;99.01;94211.41;4943747;28;20043;-89
2023/06/16 10:08:47;;;;;;;5.22;3.50;;;;;;;24.44;97.50;94209.31;4942995;29;20046;-83
2023/06/16 10:11:17;;;;;;;5.55;3.28;;;;;;;25.02;96.71;94204.13;4942858;29;20497;-86
2023/06/16 10:13:50;;;;;;;3.00;2.70;;;;;;;24.53;87.80;94181.16;4962838;28;20070;-91
2023/06/16 10:16:17;;;;;;;3.10;2.80;;;;;;;25.04;91.77;94191.41;4960662;28;20154;-84
2023/06/16 10:18:44;;;;;;;3.17;2.80;;;;;;;24.42;95.86;94200.06;4968685;28;20485;-85
2023/06/16 10:21:10;;;;;;;4.47;3.00;;;;;;;25.09;94.67;94188.69;4936298;28;20159;-82
2023/06/16 10:23:36;;;;;;;3.92;2.80;;;;;;;25.31;86.80;94177.59;4941137;29;20027;-86
2023/06/16 10:26:04;;;;;;;4.32;3.05;;;;;;;25.16;84.99;94170.59;4942797;28;20031;-84
2023/06/16 10:28:31;;;;;;;2.77;2.57;;;;;;;24.99;85.17;94167.56;4942875;28;20031;-84
2023/06/16 10:30:58;;;;;;;5.15;2.47;;;;;;;24.60;82.14;94163.09;4941304;28;20027;-83
2023/06/16 10:33:28;;;;;;;3.60;3.30;;;;;;;24.26;86.29;94164.94;4943301;28;20481;-80
2023/06/16 10:35:57;;;;;;;4.80;3.30;;;;;;;24.41;95.54;94187.88;4942018;28;20575;-87
2023/06/16 10:38:24;;;;;;;;;;;;;;;25.02;87.02;94167.00;4974351;28;20024;-75
2023/06/16 10:40:50;;;;;;;4.28;2.72;;;;;;;24.58;82.43;94141.41;4941967;28;20312;-77
2023/06/16 10:43:25;;;;;;;3.47;3.17;;;;;;;24.14;92.90;94177.72;4941383;29;20075;-91
2023/06/16 10:46:11;;;;;;;3.38;3.03;;;;;;;25.39;92.75;94166.38;4942124;28;20031;-85
2023/06/16 10:49:05;;;;;;;2.92;2.63;;;;;;;25.00;75.48;94134.69;4943243;29;20027;-75
2023/06/16 10:51:40;;;;;;;2.95;2.67;;;;;;;24.95;82.57;94148.78;4946395;28;20035;-87
2023/06/16 10:54:08;;;;;;;3.15;2.85;;;;;;;24.27;85.34;94148.00;4944702;28;20119;-80
2023/06/16 10:57:03;;;;;;;3.65;3.00;;;;;;;24.82;83.63;94138.06;4942024;28;20045;-75
2023/06/16 10:59:30;;;;;;;3.17;2.90;;;;;;;25.18;92.21;94165.78;4946401;28;20066;-86
2023/06/16 11:01:59;;;;;;;3.58;2.38;;;;;;;25.01;73.71;94121.16;4944130;28;20138;-85
2023/06/16 11:04:26;;;;;;;3.72;2.67;;;;;;;24.96;77.64;94115.91;4946052;28;20043;-77
2023/06/16 11:07:03;;;;;;;3.38;2.47;;;;;;;24.85;71.93;94109.13;4945568;28;20074;-84
2023/06/16 11:09:29;;;;;;;3.30;3.00;;;;;;;24.60;72.17;94110.13;4944123;29;20575;-82
2023/06/16 11:11:59;;;;;;;3.55;3.25;;;;;;;24.96;77.07;94115.13;4946410;28;20445;-80
2023/06/16 11:14:25;;;;;;;3.10;2.90;;;;;;;24.33;74.77;94106.38;4942263;28;20140;-79